Time;durP1;ratioP1;P1;durP2;ratioP2;P2;SDS_P1;SDS_P2;PMS_P1;PMS_P2;Temp;Humidity;BMP_temperature;BMP_pressure;BME280_temperature;BME280_humidity;BME280_pressure;Samples;Min_cycle;Max_cycle;Signal;HPM_P1;HPM_P2
2023/12/02 00:01:54;;;;;;;27.60;14.07;;;-0.50;99.90;;;;;;5075572;28;20168;-74
2023/12/02 00:04:19;;;;;;;30.90;14.53;;;-0.40;99.90;;;;;;5075440;28;20242;-74
2023/12/02 00:06:45;;;;;;;26.23;13.80;;;-0.40;99.90;;;;;;5075240;28;20204;-74
2023/12/02 00:09:10;;;;;;;31.57;14.50;;;-0.30;99.90;;;;;;5075296;28;20215;-73
2023/12/02 00:11:36;;;;;;;30.70;14.70;;;-0.40;99.90;;;;;;5073772;28;20655;-74
2023/12/02 00:14:02;;;;;;;27.70;14.00;;;-0.30;99.90;;;;;;5057292;28;20175;-73
2023/12/02 00:16:28;;;;;;;29.73;14.10;;;-0.40;99.90;;;;;;5075051;28;20264;-73
2023/12/02 00:18:54;;;;;;;28.27;14.03;;;-0.60;99.90;;;;;;5075154;28;20634;-73
2023/12/02 00:21:20;;;;;;;28.63;14.20;;;-0.80;99.90;;;;;;5074061;28;20531;-73
2023/12/02 00:23:46;;;;;;;25.90;14.13;;;-0.90;99.90;;;;;;5074902;28;20173;-73
2023/12/02 00:26:11;;;;;;;25.70;12.83;;;-1.00;99.90;;;;;;5072989;28;20581;-73
2023/12/02 00:28:37;;;;;;;27.37;12.90;;;-1.00;99.90;;;;;;5075004;28;20193;-74
2023/12/02 00:31:03;;;;;;;28.93;14.17;;;-1.10;99.90;;;;;;5074898;28;20161;-73
2023/12/02 00:33:29;;;;;;;24.40;12.53;;;-1.20;99.90;;;;;;5074809;28;20621;-73
2023/12/02 00:35:55;;;;;;;30.07;14.30;;;-1.30;99.90;;;;;;5074857;28;20164;-74
2023/12/02 00:38:21;;;;;;;27.03;12.87;;;-1.30;99.90;;;;;;5074516;28;20230;-74
2023/12/02 00:40:46;;;;;;;26.90;13.10;;;-1.30;99.90;;;;;;5074282;28;20590;-73
2023/12/02 00:43:12;;;;;;;28.67;13.93;;;-1.40;99.90;;;;;;5074626;28;20165;-74
2023/12/02 00:45:38;;;;;;;30.87;14.67;;;-1.50;99.90;;;;;;5074774;28;20267;-74
2023/12/02 00:48:03;;;;;;;27.60;13.60;;;-1.50;99.90;;;;;;5074623;28;20673;-73
2023/12/02 00:50:29;;;;;;;32.70;14.03;;;-1.50;99.90;;;;;;5074602;28;20172;-73
2023/12/02 00:52:54;;;;;;;29.23;12.93;;;-1.50;99.90;;;;;;5074362;28;20172;-73
2023/12/02 00:55:20;;;;;;;26.37;11.97;;;-1.50;99.90;;;;;;5074099;28;20183;-73
2023/12/02 00:57:46;;;;;;;27.37;13.30;;;-1.60;99.90;;;;;;5074636;28;20180;-72
2023/12/02 01:00:12;;;;;;;28.47;13.27;;;-1.50;99.90;;;;;;5074330;28;20765;-73
2023/12/02 01:02:37;;;;;;;32.00;15.50;;;-1.50;99.90;;;;;;5074361;28;20196;-72
2023/12/02 01:05:04;;;;;;;29.80;13.60;;;-1.50;99.90;;;;;;5074311;28;20198;-73
2023/12/02 01:07:29;;;;;;;30.97;14.50;;;-1.60;99.90;;;;;;5073914;28;20176;-72
2023/12/02 01:09:55;;;;;;;35.20;14.63;;;-1.60;99.90;;;;;;5073928;28;20169;-73
2023/12/02 01:12:20;;;;;;;32.77;15.43;;;-1.50;99.90;;;;;;5074072;28;20161;-72
2023/12/02 01:14:46;;;;;;;34.33;14.47;;;-1.50;99.90;;;;;;5074234;28;20190;-72
2023/12/02 01:17:11;;;;;;;31.97;14.77;;;-1.40;99.90;;;;;;5074055;28;20169;-73
2023/12/02 01:19:37;;;;;;;31.20;15.00;;;-1.40;99.90;;;;;;5074104;28;20200;-73
2023/12/02 01:22:03;;;;;;;30.13;14.23;;;-1.30;99.90;;;;;;5073975;28;20196;-72
2023/12/02 01:24:28;;;;;;;31.90;15.17;;;-1.40;99.90;;;;;;5073612;28;20179;-72
2023/12/02 01:26:54;;;;;;;32.73;15.10;;;-1.30;99.90;;;;;;5072969;28;20299;-72
2023/12/02 01:29:19;;;;;;;32.93;15.63;;;-1.20;99.90;;;;;;5073868;28;20196;-73
2023/12/02 01:31:45;;;;;;;33.17;15.83;;;-1.10;99.90;;;;;;5073909;28;20625;-73
2023/12/02 01:34:11;;;;;;;33.27;15.67;;;-1.10;99.90;;;;;;5073831;28;20204;-73
2023/12/02 01:36:36;;;;;;;32.43;15.37;;;-1.10;99.90;;;;;;5072199;28;20175;-73
2023/12/02 01:39:02;;;;;;;31.07;15.53;;;-1.00;99.90;;;;;;5073233;28;20208;-73
2023/12/02 01:41:30;;;;;;;34.60;15.37;;;-1.00;99.90;;;;;;5073548;28;20612;-73
2023/12/02 01:43:55;;;;;;;32.97;15.67;;;-1.00;99.90;;;;;;5073803;28;20180;-73
2023/12/02 01:46:21;;;;;;;34.07;15.80;;;-0.90;99.90;;;;;;5073653;28;20310;-73
2023/12/02 01:48:47;;;;;;;34.63;16.23;;;-0.90;99.90;;;;;;5072360;28;20183;-73
2023/12/02 01:51:13;;;;;;;32.93;15.00;;;-1.00;99.90;;;;;;5072344;28;20173;-73
2023/12/02 01:53:39;;;;;;;35.57;17.20;;;-1.10;99.90;;;;;;5073202;28;20180;-73
2023/12/02 01:56:05;;;;;;;32.57;15.10;;;-1.10;99.90;;;;;;5073270;28;20174;-73
2023/12/02 01:58:31;;;;;;;34.13;15.37;;;-1.10;99.90;;;;;;5072073;28;20227;-73
2023/12/02 02:00:57;;;;;;;32.87;14.00;;;-1.00;99.90;;;;;;5073411;28;20649;-73
2023/12/02 02:03:22;;;;;;;34.63;16.47;;;-1.10;99.90;;;;;;5073391;28;20164;-72
2023/12/02 02:05:48;;;;;;;33.40;16.17;;;-1.10;99.90;;;;;;5072043;28;20203;-73
2023/12/02 02:08:14;;;;;;;32.80;16.17;;;-1.10;99.90;;;;;;5073065;28;20192;-72
2023/12/02 02:10:39;;;;;;;34.13;15.90;;;-1.10;99.90;;;;;;5072268;28;20808;-73
2023/12/02 02:13:05;;;;;;;34.47;16.33;;;-1.10;99.90;;;;;;5073255;28;20165;-73
2023/12/02 02:15:31;;;;;;;31.67;14.97;;;-1.00;99.90;;;;;;5073453;28;20172;-73
2023/12/02 02:17:57;;;;;;;35.43;16.10;;;-1.10;99.90;;;;;;5073258;28;20168;-73
2023/12/02 02:20:22;;;;;;;31.63;15.07;;;-1.10;99.90;;;;;;5073055;28;20261;-73
2023/12/02 02:22:48;;;;;;;29.50;14.27;;;-1.20;99.90;;;;;;5072768;28;20169;-74
2023/12/02 02:25:14;;;;;;;30.93;15.17;;;-1.20;99.90;;;;;;5073231;28;20628;-74
2023/12/02 02:27:39;;;;;;;29.97;13.60;;;-1.20;99.90;;;;;;5072623;28;20225;-74
2023/12/02 02:30:06;;;;;;;33.80;15.43;;;-1.20;99.90;;;;;;5073073;28;20201;-73
2023/12/02 02:32:32;;;;;;;32.23;15.77;;;-1.40;99.90;;;;;;5073062;28;20168;-73
2023/12/02 02:34:58;;;;;;;31.90;16.63;;;-1.30;99.90;;;;;;5072916;28;20175;-72
2023/12/02 02:37:24;;;;;;;34.83;15.80;;;-1.20;99.90;;;;;;5072823;28;20181;-73
2023/12/02 02:39:49;;;;;;;31.17;16.17;;;-1.30;99.90;;;;;;5077148;28;20295;-72
2023/12/02 02:42:15;;;;;;;35.43;16.43;;;-1.30;99.90;;;;;;5076997;28;20183;-73
2023/12/02 02:44:41;;;;;;;32.20;15.60;;;-1.30;99.90;;;;;;5075673;28;20211;-72
2023/12/02 02:47:06;;;;;;;33.37;15.93;;;-1.40;99.90;;;;;;5076825;28;20180;-72
2023/12/02 02:49:32;;;;;;;34.90;15.63;;;-1.40;99.90;;;;;;5075690;28;20177;-72
2023/12/02 02:51:57;;;;;;;34.57;15.70;;;-1.30;99.90;;;;;;5075190;28;20624;-72
2023/12/02 02:54:23;;;;;;;30.83;15.80;;;-1.40;99.90;;;;;;5058939;28;20286;-72
2023/12/02 02:56:49;;;;;;;30.97;14.63;;;-1.40;99.90;;;;;;5076818;28;20200;-73
2023/12/02 02:59:15;;;;;;;33.10;16.30;;;-1.60;99.90;;;;;;5076738;28;20648;-73
2023/12/02 03:01:47;;;;;;;31.03;14.53;;;-1.60;99.90;;;;;;5075411;28;20263;-72
2023/12/02 03:04:13;;;;;;;32.20;14.97;;;-1.50;99.90;;;;;;5076544;28;20181;-72
2023/12/02 03:06:39;;;;;;;29.93;15.23;;;-1.50;99.90;;;;;;5076219;28;20204;-72
2023/12/02 03:09:05;;;;;;;33.87;15.97;;;-1.50;99.90;;;;;;5076567;28;20203;-71
2023/12/02 03:11:32;;;;;;;34.07;15.97;;;-1.50;99.90;;;;;;5076491;28;20176;-73
2023/12/02 03:13:58;;;;;;;34.87;15.67;;;-1.50;99.90;;;;;;5075192;28;20274;-72
2023/12/02 03:16:23;;;;;;;30.73;15.20;;;-1.40;99.90;;;;;;5075104;28;20177;-71
2023/12/02 03:18:49;;;;;;;34.27;15.13;;;-1.40;99.90;;;;;;5076150;28;20237;-72
2023/12/02 03:21:14;;;;;;;34.67;16.67;;;-1.40;99.90;;;;;;5076514;28;20642;-73
2023/12/02 03:23:40;;;;;;;36.20;15.53;;;-1.50;99.90;;;;;;5076195;28;20285;-73
2023/12/02 03:26:06;;;;;;;33.33;14.87;;;-1.50;99.90;;;;;;5075986;28;20219;-73
2023/12/02 03:28:32;;;;;;;31.07;14.57;;;-1.50;99.90;;;;;;5076109;28;20639;-72
2023/12/02 03:30:59;;;;;;;33.97;15.83;;;-1.60;99.90;;;;;;5076140;28;20161;-73
2023/12/02 03:33:25;;;;;;;37.00;16.33;;;-1.50;99.90;;;;;;5075606;28;20177;-72
2023/12/02 03:35:51;;;;;;;30.50;14.97;;;-1.60;99.90;;;;;;5076176;28;20651;-73
2023/12/02 03:38:16;;;;;;;32.67;16.07;;;-1.60;99.90;;;;;;5076108;28;20183;-73
2023/12/02 03:40:42;;;;;;;32.37;16.27;;;-1.60;99.90;;;;;;5075991;28;20187;-72
2023/12/02 03:43:08;;;;;;;35.73;15.57;;;-1.60;99.90;;;;;;5075852;28;20255;-72
2023/12/02 03:45:33;;;;;;;33.33;15.13;;;-1.60;99.90;;;;;;5075838;28;20271;-72
2023/12/02 03:47:59;;;;;;;32.50;15.17;;;-1.60;99.90;;;;;;5075393;28;20199;-72
2023/12/02 03:50:25;;;;;;;32.60;16.07;;;-1.60;99.90;;;;;;5075192;28;20172;-72
2023/12/02 03:52:50;;;;;;;30.87;15.50;;;-1.60;99.90;;;;;;5075709;28;20636;-72
2023/12/02 03:55:18;;;;;;;36.33;15.90;;;-1.60;99.90;;;;;;5075710;28;20165;-73
2023/12/02 03:57:44;;;;;;;35.00;16.27;;;-1.50;99.90;;;;;;5075420;28;20191;-72
2023/12/02 04:00:19;;;;;;;39.40;17.00;;;-1.50;99.90;;;;;;5075449;28;20200;-73
2023/12/02 04:02:45;;;;;;;34.20;15.97;;;-1.50;99.90;;;;;;5075132;28;20217;-73
2023/12/02 04:05:12;;;;;;;31.73;15.63;;;-1.50;99.90;;;;;;5075703;28;20255;-74
2023/12/02 04:07:38;;;;;;;34.93;16.40;;;-1.40;99.90;;;;;;5075512;28;20177;-74
2023/12/02 04:10:04;;;;;;;36.47;16.53;;;-1.40;99.90;;;;;;5075320;28;20176;-73
2023/12/02 04:12:30;;;;;;;35.50;16.77;;;-1.30;99.90;;;;;;5074179;28;20691;-73
2023/12/02 04:14:56;;;;;;;32.73;15.67;;;-1.30;99.90;;;;;;5075260;28;20165;-73
2023/12/02 04:17:22;;;;;;;32.03;16.30;;;-1.20;99.90;;;;;;5074830;28;20180;-73
2023/12/02 04:19:47;;;;;;;31.63;16.30;;;-1.20;99.90;;;;;;5073763;28;20212;-72
2023/12/02 04:22:18;;;;;;;31.30;15.87;;;-1.40;99.90;;;;;;5073728;28;20176;-72
2023/12/02 04:24:45;;;;;;;35.30;16.47;;;-1.30;99.90;;;;;;5075310;28;20172;-72
2023/12/02 04:27:11;;;;;;;33.43;16.53;;;-1.20;99.90;;;;;;5074459;28;20256;-72
2023/12/02 04:29:41;;;;;;;35.50;16.47;;;-1.30;99.90;;;;;;5075077;28;20636;-72
2023/12/02 04:32:06;;;;;;;37.10;16.73;;;-1.40;99.90;;;;;;5073385;28;20184;-73
2023/12/02 04:34:33;;;;;;;36.40;17.20;;;-1.40;99.90;;;;;;5074947;28;20169;-72
2023/12/02 04:36:58;;;;;;;31.03;15.73;;;-1.40;99.90;;;;;;5074849;28;20173;-72
2023/12/02 04:39:25;;;;;;;34.17;16.27;;;-1.40;99.90;;;;;;5073427;28;20216;-72
2023/12/02 04:41:51;;;;;;;32.27;15.37;;;-1.50;99.90;;;;;;5074555;28;20615;-72
2023/12/02 04:44:17;;;;;;;34.23;16.87;;;-1.50;99.90;;;;;;5074351;28;20203;-73
2023/12/02 04:46:43;;;;;;;34.50;16.93;;;-1.60;99.90;;;;;;5074420;28;20196;-72
2023/12/02 04:49:08;;;;;;;32.33;16.23;;;-1.60;99.90;;;;;;5073007;28;20172;-72
2023/12/02 04:51:34;;;;;;;36.17;16.73;;;-1.50;99.90;;;;;;5074513;28;20267;-72
2023/12/02 04:54:00;;;;;;;31.87;15.33;;;-1.50;99.90;;;;;;5072971;28;20182;-73
2023/12/02 04:56:25;;;;;;;36.20;17.03;;;-1.40;99.90;;;;;;5072829;28;20180;-72
2023/12/02 04:58:51;;;;;;;34.17;16.07;;;-1.30;99.90;;;;;;5074341;28;20272;-72
2023/12/02 05:01:17;;;;;;;34.70;17.13;;;-1.30;99.90;;;;;;5073659;28;20170;-74
2023/12/02 05:03:43;;;;;;;33.50;16.90;;;-1.30;99.90;;;;;;5074395;28;20173;-73
2023/12/02 05:06:14;;;;;;;35.40;17.10;;;-1.40;99.90;;;;;;5074224;28;20184;-73
2023/12/02 05:08:40;;;;;;;35.17;16.23;;;-1.50;99.90;;;;;;5074244;28;20168;-74
2023/12/02 05:11:06;;;;;;;37.80;17.13;;;-1.60;99.90;;;;;;5073731;28;20184;-73
2023/12/02 05:13:31;;;;;;;33.03;17.00;;;-1.60;99.90;;;;;;5073524;28;20199;-72
2023/12/02 05:15:57;;;;;;;37.90;16.90;;;-1.50;99.90;;;;;;5073659;28;20628;-73
2023/12/02 05:18:23;;;;;;;32.97;16.27;;;-1.60;99.90;;;;;;5073762;28;20180;-73
2023/12/02 05:20:49;;;;;;;40.73;19.10;;;-1.70;99.90;;;;;;5073838;28;20176;-73
2023/12/02 05:23:15;;;;;;;37.67;18.20;;;-1.70;99.90;;;;;;5073786;28;20388;-73
2023/12/02 05:25:40;;;;;;;34.63;17.23;;;-1.60;99.90;;;;;;5072064;28;20220;-72
2023/12/02 05:28:06;;;;;;;35.53;16.93;;;-1.70;99.90;;;;;;5073792;28;20187;-72
2023/12/02 05:30:34;;;;;;;33.27;16.47;;;-1.70;99.90;;;;;;5073412;28;20202;-73
2023/12/02 05:33:00;;;;;;;33.03;15.47;;;-1.60;99.90;;;;;;5073685;28;20173;-71
2023/12/02 05:35:25;;;;;;;36.37;16.83;;;-1.70;99.90;;;;;;5073479;28;20256;-73
2023/12/02 05:37:52;;;;;;;33.27;16.20;;;-1.80;99.90;;;;;;5073587;28;20175;-72
2023/12/02 05:40:18;;;;;;;35.80;16.27;;;-1.80;99.90;;;;;;5073409;28;20223;-73
2023/12/02 05:42:43;;;;;;;33.10;16.70;;;-1.80;99.90;;;;;;5073011;28;20268;-72
2023/12/02 05:45:10;;;;;;;35.93;17.27;;;-1.80;99.90;;;;;;5072683;28;20590;-72
2023/12/02 05:47:35;;;;;;;35.97;16.63;;;-1.80;99.90;;;;;;5073345;28;20165;-72
2023/12/02 05:50:01;;;;;;;31.70;15.70;;;-1.80;99.90;;;;;;5072969;28;20195;-72
2023/12/02 05:52:27;;;;;;;38.17;16.30;;;-1.80;99.90;;;;;;5072715;28;20199;-72
2023/12/02 05:54:52;;;;;;;36.67;17.67;;;-1.70;99.90;;;;;;5072588;28;20176;-73
2023/12/02 05:57:18;;;;;;;38.33;17.03;;;-1.60;99.90;;;;;;5073052;28;20172;-72
2023/12/02 05:59:43;;;;;;;34.83;17.60;;;-1.60;99.90;;;;;;5072747;28;20285;-72
2023/12/02 06:02:09;;;;;;;40.40;17.13;;;-1.40;99.90;;;;;;5072981;28;20167;-72
2023/12/02 06:04:35;;;;;;;36.80;17.80;;;-1.20;99.90;;;;;;5073120;28;20211;-72
2023/12/02 06:07:00;;;;;;;38.53;18.10;;;-1.00;99.90;;;;;;5072634;28;20177;-72
2023/12/02 06:09:26;;;;;;;36.23;17.27;;;-1.20;99.90;;;;;;5073114;28;20588;-72
2023/12/02 06:11:51;;;;;;;40.30;19.07;;;-1.30;99.90;;;;;;5071479;28;20177;-72
2023/12/02 06:14:17;;;;;;;35.30;17.10;;;-1.30;99.90;;;;;;5072379;28;20673;-72
2023/12/02 06:16:43;;;;;;;35.27;17.87;;;-1.40;99.90;;;;;;5071753;28;20517;-72
2023/12/02 06:19:08;;;;;;;32.73;16.73;;;-1.30;99.90;;;;;;5073040;28;20548;-71
2023/12/02 06:21:34;;;;;;;35.83;17.07;;;-1.20;99.90;;;;;;5072873;28;20168;-72
2023/12/02 06:24:00;;;;;;;37.20;17.33;;;-1.20;99.90;;;;;;5072795;28;20282;-72
2023/12/02 06:26:26;;;;;;;38.03;17.13;;;-1.10;99.90;;;;;;5071134;28;20673;-72
2023/12/02 06:28:51;;;;;;;30.87;16.03;;;-1.20;99.90;;;;;;5072568;28;20278;-72
2023/12/02 06:31:17;;;;;;;36.63;17.47;;;-1.10;99.90;;;;;;5072498;28;20164;-72
2023/12/02 06:33:43;;;;;;;36.67;18.27;;;-1.10;99.90;;;;;;5073052;28;20225;-71
2023/12/02 06:36:09;;;;;;;38.63;17.43;;;-1.10;99.90;;;;;;5072720;28;20175;-72
2023/12/02 06:38:38;;;;;;;37.27;17.60;;;-1.20;99.90;;;;;;5072306;28;20201;-71
2023/12/02 06:41:04;;;;;;;32.23;16.77;;;-1.10;99.90;;;;;;5072338;28;20186;-72
2023/12/02 06:43:29;;;;;;;38.07;17.77;;;-1.00;99.90;;;;;;5072511;28;20174;-72
2023/12/02 06:45:55;;;;;;;34.13;17.63;;;-0.80;99.90;;;;;;5072630;28;20227;-72
2023/12/02 06:48:20;;;;;;;37.57;17.90;;;-0.80;99.90;;;;;;5072354;28;20183;-73
2023/12/02 06:50:46;;;;;;;34.80;17.73;;;-0.80;99.90;;;;;;5072528;28;20605;-72
2023/12/02 06:53:15;;;;;;;36.47;17.07;;;-0.70;99.90;;;;;;5072018;28;20178;-72
2023/12/02 06:55:41;;;;;;;36.43;17.63;;;-0.70;99.90;;;;;;5072300;28;20169;-72
2023/12/02 06:58:07;;;;;;;37.10;17.50;;;-0.60;99.90;;;;;;5072167;28;20172;-72
2023/12/02 07:00:33;;;;;;;37.93;18.70;;;-0.60;99.90;;;;;;5072238;28;20226;-72
2023/12/02 07:02:59;;;;;;;33.40;17.47;;;-0.60;99.90;;;;;;5072957;28;20524;-72
2023/12/02 07:05:25;;;;;;;36.80;18.63;;;-0.70;99.90;;;;;;5071974;28;20182;-72
2023/12/02 07:07:50;;;;;;;37.20;17.90;;;-0.80;99.90;;;;;;5071986;28;20173;-72
2023/12/02 07:10:16;;;;;;;36.70;16.97;;;-0.80;99.90;;;;;;5072602;28;20185;-72
2023/12/02 07:12:42;;;;;;;37.63;18.63;;;-0.90;99.90;;;;;;5071601;28;20477;-72
2023/12/02 07:15:08;;;;;;;36.40;17.60;;;-1.00;99.90;;;;;;5072418;28;20206;-73
2023/12/02 07:17:33;;;;;;;37.27;17.37;;;-1.10;99.90;;;;;;5071910;28;20502;-73
2023/12/02 07:20:00;;;;;;;33.90;18.03;;;-1.00;99.90;;;;;;5072358;28;20204;-72
2023/12/02 07:22:26;;;;;;;38.43;18.07;;;-1.00;99.90;;;;;;5071964;28;20204;-73
2023/12/02 07:24:52;;;;;;;34.13;17.60;;;-1.10;99.90;;;;;;5072765;28;20174;-72
2023/12/02 07:27:18;;;;;;;40.53;18.20;;;-1.30;99.90;;;;;;5074828;28;20218;-72
2023/12/02 07:29:44;;;;;;;34.63;16.73;;;-1.30;99.90;;;;;;5075879;28;20204;-73
2023/12/02 07:32:09;;;;;;;38.43;18.33;;;-1.30;99.90;;;;;;5074609;28;20173;-73
2023/12/02 07:34:35;;;;;;;39.33;18.43;;;-1.30;99.90;;;;;;5075893;28;20187;-73
2023/12/02 07:37:01;;;;;;;39.23;18.30;;;-1.30;99.90;;;;;;5074026;28;20173;-72
2023/12/02 07:39:27;;;;;;;40.83;18.50;;;-1.30;99.90;;;;;;5075594;28;20249;-73
2023/12/02 07:41:52;;;;;;;41.40;18.97;;;-1.20;99.90;;;;;;5073692;28;20207;-71
2023/12/02 07:44:18;;;;;;;40.93;18.63;;;-1.20;99.90;;;;;;5075197;28;20650;-73
2023/12/02 07:46:43;;;;;;;36.10;16.70;;;-1.10;99.90;;;;;;5075261;28;20597;-72
2023/12/02 07:49:09;;;;;;;41.57;19.27;;;-1.10;99.90;;;;;;5075134;28;20172;-72
2023/12/02 07:51:35;;;;;;;41.17;18.50;;;-1.10;99.90;;;;;;5075510;28;20702;-73
2023/12/02 07:54:00;;;;;;;36.30;17.70;;;-1.20;99.90;;;;;;5074873;28;20192;-72
2023/12/02 07:56:26;;;;;;;41.10;18.40;;;-1.20;99.90;;;;;;5074960;28;20173;-73
2023/12/02 07:58:51;;;;;;;40.73;18.57;;;-1.10;99.90;;;;;;5075231;28;20245;-72
2023/12/02 08:01:17;;;;;;;38.17;17.80;;;-1.00;99.90;;;;;;5075289;28;20170;-72
2023/12/02 08:03:43;;;;;;;37.23;18.20;;;-0.80;99.90;;;;;;5074782;28;20514;-72
2023/12/02 08:06:09;;;;;;;35.30;17.50;;;-0.70;99.90;;;;;;5074726;28;20253;-72
2023/12/02 08:08:34;;;;;;;37.83;18.87;;;-0.60;99.90;;;;;;5073371;28;20266;-73
2023/12/02 08:11:00;;;;;;;41.60;19.23;;;-0.40;99.90;;;;;;5074586;28;20259;-72
2023/12/02 08:13:26;;;;;;;38.47;18.10;;;-0.40;99.90;;;;;;5075003;28;20167;-72
2023/12/02 08:15:51;;;;;;;41.10;18.50;;;-0.30;99.90;;;;;;5073837;28;20180;-72
2023/12/02 08:18:18;;;;;;;39.17;19.43;;;-0.40;99.90;;;;;;5073528;28;20623;-72
2023/12/02 08:20:45;;;;;;;37.20;17.93;;;-0.10;99.90;;;;;;5074479;28;20207;-73
2023/12/02 08:23:10;;;;;;;33.03;17.07;;;0.50;99.90;;;;;;5074711;28;20164;-73
2023/12/02 08:25:36;;;;;;;32.60;17.13;;;1.20;99.90;;;;;;5073713;28;20225;-73
2023/12/02 08:28:01;;;;;;;32.90;17.23;;;1.60;99.90;;;;;;5074721;28;20546;-73
2023/12/02 08:30:27;;;;;;;34.47;16.93;;;2.40;99.90;;;;;;5074756;28;20231;-73
2023/12/02 08:32:52;;;;;;;32.23;16.83;;;3.00;99.90;;;;;;5074513;28;20624;-74
2023/12/02 08:35:18;;;;;;;28.20;16.50;;;3.50;99.90;;;;;;5074426;28;20176;-73
2023/12/02 08:37:44;;;;;;;32.07;17.60;;;3.90;99.90;;;;;;5074206;28;20169;-73
2023/12/02 08:40:10;;;;;;;32.73;18.53;;;4.00;99.90;;;;;;5073209;28;20200;-73
2023/12/02 08:42:35;;;;;;;30.93;17.77;;;4.50;99.90;;;;;;5073886;28;20223;-74
2023/12/02 08:45:02;;;;;;;28.67;17.70;;;4.90;99.90;;;;;;5074183;28;20169;-74
2023/12/02 08:47:28;;;;;;;28.70;16.87;;;5.60;99.90;;;;;;5072769;28;20529;-74
2023/12/02 08:49:53;;;;;;;28.17;17.13;;;6.00;99.90;;;;;;5074087;28;20161;-73
2023/12/02 08:52:19;;;;;;;28.47;17.47;;;6.20;99.90;;;;;;5072548;28;20184;-74
2023/12/02 08:54:45;;;;;;;30.80;18.23;;;6.20;99.90;;;;;;5073611;28;20586;-73
2023/12/02 08:57:10;;;;;;;30.17;18.00;;;6.80;99.20;;;;;;5072690;28;20180;-73
2023/12/02 08:59:36;;;;;;;29.53;18.10;;;6.70;97.60;;;;;;5074057;28;20287;-72
2023/12/02 09:02:05;;;;;;;32.70;18.30;;;7.30;97.10;;;;;;5073983;28;20187;-72
2023/12/02 09:04:31;;;;;;;29.77;18.30;;;7.10;95.40;;;;;;5073702;28;20219;-73
2023/12/02 09:06:57;;;;;;;29.63;18.33;;;7.50;95.80;;;;;;5072320;28;20196;-73
2023/12/02 09:09:22;;;;;;;30.17;18.53;;;6.90;95.20;;;;;;5074027;28;20176;-73
2023/12/02 09:11:48;;;;;;;31.63;17.93;;;6.70;95.90;;;;;;5073437;28;20176;-73
2023/12/02 09:14:14;;;;;;;30.10;17.80;;;6.00;97.70;;;;;;5073952;28;20220;-72
2023/12/02 09:16:46;;;;;;;31.17;18.60;;;5.80;99.90;;;;;;5073732;28;20182;-73
2023/12/02 09:19:30;;;;;;;28.20;16.77;;;6.60;98.80;;;;;;5072000;28;20290;-73
2023/12/02 09:21:56;;;;;;;30.33;18.17;;;7.20;97.30;;;;;;5072797;28;20172;-73
2023/12/02 09:24:37;;;;;;;31.20;18.80;;;7.90;95.30;;;;;;5073461;28;20164;-73
2023/12/02 09:27:05;;;;;;;31.90;18.53;;;8.60;93.50;;;;;;5072975;28;20228;-73
2023/12/02 09:29:40;;;;;;;31.47;18.80;;;9.40;90.70;;;;;;5073337;28;20241;-72
2023/12/02 09:32:42;;;;;;;26.33;17.00;;;8.80;90.20;;;;;;5072831;28;20198;-73
2023/12/02 09:35:08;;;;;;;25.40;16.33;;;8.60;89.90;;;;;;5073364;28;20217;-73
2023/12/02 09:37:51;;;;;;;27.17;17.87;;;7.90;90.10;;;;;;5073137;28;20169;-72
2023/12/02 09:40:20;;;;;;;28.03;17.97;;;7.30;93.30;;;;;;5073134;28;20283;-73
2023/12/02 09:43:10;;;;;;;28.63;16.97;;;7.40;94.50;;;;;;5071470;28;20164;-73
2023/12/02 09:46:10;;;;;;;31.03;17.93;;;7.60;92.40;;;;;;5072877;28;20171;-73
2023/12/02 09:48:50;;;;;;;28.97;18.57;;;7.90;92.90;;;;;;5071879;28;20189;-73
2023/12/02 09:51:41;;;;;;;30.13;18.47;;;8.40;91.60;;;;;;5072239;28;20186;-73
2023/12/02 09:54:07;;;;;;;25.23;17.03;;;8.50;91.10;;;;;;5073173;28;20646;-73
2023/12/02 09:56:42;;;;;;;27.13;18.17;;;8.70;90.50;;;;;;5072292;28;20244;-73
2023/12/02 09:59:18;;;;;;;28.50;17.90;;;9.30;88.30;;;;;;5072692;28;20200;-74
2023/12/02 10:02:01;;;;;;;29.43;18.97;;;9.40;83.70;;;;;;5072685;28;20240;-74
2023/12/02 10:05:11;;;;;;;26.50;17.77;;;9.20;84.90;;;;;;5071734;28;20164;-73
2023/12/02 10:07:59;;;;;;;32.50;18.97;;;8.60;88.20;;;;;;5030243;28;20265;-73
2023/12/02 10:10:28;;;;;;;31.17;18.87;;;8.80;87.50;;;;;;5014471;28;20205;-73
2023/12/02 10:13:05;;;;;;;31.00;18.47;;;9.00;87.30;;;;;;5029938;28;20178;-74
2023/12/02 10:15:34;;;;;;;32.90;19.70;;;8.40;87.50;;;;;;5013942;28;20288;-73
2023/12/02 10:18:10;;;;;;;30.17;18.03;;;8.70;90.50;;;;;;5013988;28;20315;-74
2023/12/02 10:20:40;;;;;;;29.17;18.43;;;9.00;88.10;;;;;;5028830;28;20205;-73
2023/12/02 10:23:48;;;;;;;31.47;18.60;;;8.70;87.30;;;;;;5013488;28;20177;-73
2023/12/02 10:26:18;;;;;;;28.23;18.00;;;8.90;90.00;;;;;;4993318;28;20232;-73
2023/12/02 10:28:57;;;;;;;30.23;19.10;;;8.90;89.20;;;;;;5030450;28;20217;-74
2023/12/02 10:31:28;;;;;;;28.17;18.43;;;9.00;87.40;;;;;;5029694;28;20260;-73
2023/12/02 10:33:54;;;;;;;29.70;19.33;;;8.80;85.80;;;;;;5029125;28;20181;-73
2023/12/02 10:36:21;;;;;;;27.50;17.80;;;8.30;88.80;;;;;;5029709;28;20189;-73
2023/12/02 10:39:09;;;;;;;27.17;18.10;;;7.90;91.30;;;;;;5029725;28;20174;-73
2023/12/02 10:42:09;;;;;;;28.50;18.30;;;8.10;91.80;;;;;;5030414;28;20279;-72
2023/12/02 10:44:39;;;;;;;27.77;18.17;;;8.30;91.10;;;;;;4979866;28;20199;-73
2023/12/02 10:47:06;;;;;;;31.00;18.63;;;8.00;91.10;;;;;;4990273;28;20179;-72
2023/12/02 10:49:33;;;;;;;29.27;18.77;;;7.80;92.70;;;;;;4990770;28;20682;-73
2023/12/02 10:52:00;;;;;;;29.13;18.37;;;8.00;91.90;;;;;;4991052;28;20179;-72
2023/12/02 10:54:30;;;;;;;27.37;18.17;;;8.50;90.90;;;;;;4990813;28;20702;-73
2023/12/02 10:57:06;;;;;;;31.13;18.40;;;8.40;90.00;;;;;;4990378;28;20661;-73
2023/12/02 10:59:35;;;;;;;30.07;18.80;;;8.40;90.60;;;;;;4991437;28;20210;-73
2023/12/02 11:02:18;;;;;;;31.67;18.67;;;8.30;90.50;;;;;;4994853;28;20274;-73
2023/12/02 11:04:49;;;;;;;29.03;19.17;;;8.60;90.90;;;;;;4994056;28;20225;-74
2023/12/02 11:07:17;;;;;;;31.10;18.90;;;9.10;88.40;;;;;;4994107;28;20183;-74
2023/12/02 11:09:51;;;;;;;28.00;17.20;;;8.50;89.30;;;;;;4994196;28;20175;-74
2023/12/02 11:12:25;;;;;;;30.30;18.43;;;8.00;90.80;;;;;;4993972;28;20318;-74
2023/12/02 11:14:58;;;;;;;27.93;18.40;;;8.00;92.10;;;;;;4994127;28;20186;-74
2023/12/02 11:18:03;;;;;;;31.63;19.63;;;7.80;91.80;;;;;;4994265;28;20298;-75
2023/12/02 11:20:50;;;;;;;30.93;18.17;;;7.10;94.10;;;;;;5047711;28;20280;-75
2023/12/02 11:23:29;;;;;;;30.20;18.80;;;7.50;94.40;;;;;;5074180;28;20180;-74
2023/12/02 11:26:02;;;;;;;28.80;18.67;;;8.10;92.60;;;;;;5074909;28;20220;-75
2023/12/02 11:28:45;;;;;;;31.77;18.80;;;8.50;90.80;;;;;;5075577;28;20181;-75
2023/12/02 11:31:13;;;;;;;31.33;18.60;;;8.80;89.10;;;;;;5074166;28;20185;-76
2023/12/02 11:33:42;;;;;;;31.07;18.50;;;8.40;90.30;;;;;;5074511;28;20164;-75
2023/12/02 11:36:53;;;;;;;31.43;18.73;;;8.40;90.10;;;;;;5075295;28;20164;-74
2023/12/02 11:39:37;;;;;;;30.07;18.47;;;7.30;93.70;;;;;;5075268;28;20211;-74
2023/12/02 11:42:16;;;;;;;29.33;18.53;;;7.50;93.60;;;;;;5075196;28;20175;-75
2023/12/02 11:45:20;;;;;;;27.37;18.37;;;8.30;91.70;;;;;;5075387;28;20180;-75
2023/12/02 11:48:13;;;;;;;29.27;17.53;;;8.60;89.70;;;;;;5069267;28;20211;-75
2023/12/02 11:51:14;;;;;;;28.30;17.90;;;8.20;90.80;;;;;;5073294;28;20177;-76
2023/12/02 11:53:55;;;;;;;29.57;18.37;;;8.20;90.60;;;;;;5075223;28;20176;-75
2023/12/02 11:56:23;;;;;;;30.80;18.70;;;7.40;93.20;;;;;;5075108;28;20168;-76
2023/12/02 11:59:01;;;;;;;29.40;18.27;;;7.10;93.30;;;;;;5074840;28;20177;-74
2023/12/02 12:01:46;;;;;;;30.33;18.70;;;7.10;94.50;;;;;;5074748;28;20166;-75
2023/12/02 12:04:29;;;;;;;30.03;18.27;;;7.30;93.90;;;;;;5074853;28;20169;-75
2023/12/02 12:07:31;;;;;;;30.27;18.40;;;7.30;94.70;;;;;;5075025;28;20195;-75
2023/12/02 12:10:03;;;;;;;36.43;24.83;;;7.20;93.70;;;;;;5072941;28;20253;-76
2023/12/02 12:12:31;;;;;;;34.50;22.70;;;7.20;94.60;;;;;;5074222;28;20183;-75
2023/12/02 12:15:00;;;;;;;31.10;19.40;;;7.30;93.80;;;;;;5074534;28;20173;-75
2023/12/02 12:17:26;;;;;;;29.90;19.80;;;7.30;94.30;;;;;;5072955;28;20570;-75
2023/12/02 12:19:52;;;;;;;31.90;19.73;;;7.30;94.50;;;;;;5074762;28;20230;-75
2023/12/02 12:22:18;;;;;;;32.77;19.70;;;6.40;95.70;;;;;;5074802;28;20169;-75
2023/12/02 12:24:43;;;;;;;34.30;21.70;;;5.80;98.30;;;;;;5073530;28;20230;-75
2023/12/02 12:27:10;;;;;;;28.60;17.90;;;6.00;98.40;;;;;;5073657;28;20696;-76
2023/12/02 12:29:51;;;;;;;28.50;17.73;;;5.90;98.40;;;;;;5074609;28;20202;-76
2023/12/02 12:32:17;;;;;;;31.47;19.37;;;5.80;98.30;;;;;;5073827;28;20175;-76
2023/12/02 12:34:43;;;;;;;34.53;19.37;;;5.70;98.40;;;;;;5073655;28;20264;-76
2023/12/02 12:37:15;;;;;;;32.10;19.30;;;5.80;98.20;;;;;;5073023;28;20692;-75
2023/12/02 12:39:40;;;;;;;31.13;19.33;;;5.60;98.80;;;;;;5073730;28;20409;-76